sensor_id;sensor_type;location;lat;lon;timestamp;temperature;humidity
16102;DHT22;56411;52.964;10.540;2024-02-15T00:01:14;10.10;99.90
16102;DHT22;56411;52.964;10.540;2024-02-15T00:04:31;10.10;99.90
16102;DHT22;56411;52.964;10.540;2024-02-15T00:07:24;10.10;99.90
16102;DHT22;56411;52.964;10.540;2024-02-15T00:10:20;10.10;99.90
16102;DHT22;56411;52.964;10.540;2024-02-15T00:42:40;10.20;99.90
16102;DHT22;56411;52.964;10.540;2024-02-15T00:45:10;10.10;99.90
16102;DHT22;56411;52.964;10.540;2024-02-15T00:49:09;10.20;99.90
16102;DHT22;56411;52.964;10.540;2024-02-15T00:51:13;10.20;99.90
16102;DHT22;56411;52.964;10.540;2024-02-15T00:53:44;10.20;99.90
16102;DHT22;56411;52.964;10.540;2024-02-15T00:56:36;10.20;99.90
16102;DHT22;56411;52.964;10.540;2024-02-15T00:59:44;10.20;99.90
16102;DHT22;56411;52.964;10.540;2024-02-15T01:02:17;10.20;99.90
16102;DHT22;56411;52.964;10.540;2024-02-15T01:05:03;10.20;99.90
16102;DHT22;56411;52.964;10.540;2024-02-15T01:08:12;10.30;99.90
16102;DHT22;56411;52.964;10.540;2024-02-15T01:11:22;10.30;99.90
16102;DHT22;56411;52.964;10.540;2024-02-15T01:17:16;10.30;99.90
16102;DHT22;56411;52.964;10.540;2024-02-15T01:20:21;10.30;99.90
16102;DHT22;56411;52.964;10.540;2024-02-15T01:23:33;10.30;99.90
16102;DHT22;56411;52.964;10.540;2024-02-15T01:26:11;10.30;99.90
16102;DHT22;56411;52.964;10.540;2024-02-15T01:42:58;10.50;99.90
16102;DHT22;56411;52.964;10.540;2024-02-15T01:45:33;10.50;99.90
16102;DHT22;56411;52.964;10.540;2024-02-15T01:48:06;10.50;99.90
16102;DHT22;56411;52.964;10.540;2024-02-15T01:51:32;10.50;99.90
16102;DHT22;56411;52.964;10.540;2024-02-15T01:53:59;10.60;99.90
16102;DHT22;56411;52.964;10.540;2024-02-15T01:56:32;10.60;99.90
16102;DHT22;56411;52.964;10.540;2024-02-15T01:59:16;10.60;99.90
16102;DHT22;56411;52.964;10.540;2024-02-15T02:01:52;10.60;99.90
16102;DHT22;56411;52.964;10.540;2024-02-15T02:07:28;10.60;99.90
16102;DHT22;56411;52.964;10.540;2024-02-15T02:10:12;10.70;99.90
16102;DHT22;56411;52.964;10.540;2024-02-15T02:12:59;10.70;99.90
16102;DHT22;56411;52.964;10.540;2024-02-15T02:15:34;10.70;99.90
16102;DHT22;56411;52.964;10.540;2024-02-15T02:18:13;10.70;99.90
16102;DHT22;56411;52.964;10.540;2024-02-15T02:20:41;10.70;99.90
16102;DHT22;56411;52.964;10.540;2024-02-15T02:23:13;10.70;99.90
16102;DHT22;56411;52.964;10.540;2024-02-15T02:25:44;10.80;99.90
16102;DHT22;56411;52.964;10.540;2024-02-15T02:28:15;10.80;99.90
16102;DHT22;56411;52.964;10.540;2024-02-15T02:31:03;10.80;99.90
16102;DHT22;56411;52.964;10.540;2024-02-15T02:33:31;10.80;99.90
16102;DHT22;56411;52.964;10.540;2024-02-15T02:36:03;10.80;99.90
16102;DHT22;56411;52.964;10.540;2024-02-15T02:38:35;10.80;99.90
16102;DHT22;56411;52.964;10.540;2024-02-15T02:41:06;10.80;99.90
16102;DHT22;56411;52.964;10.540;2024-02-15T02:43:37;10.80;99.90
16102;DHT22;56411;52.964;10.540;2024-02-15T02:46:05;10.80;99.90
16102;DHT22;56411;52.964;10.540;2024-02-15T02:48:33;10.80;99.90
16102;DHT22;56411;52.964;10.540;2024-02-15T02:54:21;10.80;99.90
16102;DHT22;56411;52.964;10.540;2024-02-15T02:56:52;10.80;99.90
16102;DHT22;56411;52.964;10.540;2024-02-15T02:59:20;10.80;99.90
16102;DHT22;56411;52.964;10.540;2024-02-15T03:01:47;10.80;99.90
16102;DHT22;56411;52.964;10.540;2024-02-15T03:04:19;10.80;99.90
16102;DHT22;56411;52.964;10.540;2024-02-15T03:06:49;10.80;99.90
16102;DHT22;56411;52.964;10.540;2024-02-15T03:09:17;10.80;99.90
16102;DHT22;56411;52.964;10.540;2024-02-15T03:11:46;10.80;99.90
16102;DHT22;56411;52.964;10.540;2024-02-15T03:14:16;10.90;99.90
16102;DHT22;56411;52.964;10.540;2024-02-15T03:16:51;10.90;99.90
16102;DHT22;56411;52.964;10.540;2024-02-15T03:19:29;10.90;99.90
16102;DHT22;56411;52.964;10.540;2024-02-15T03:21:58;10.80;99.90
16102;DHT22;56411;52.964;10.540;2024-02-15T03:24:28;10.90;99.90
16102;DHT22;56411;52.964;10.540;2024-02-15T03:27:11;10.90;99.90
16102;DHT22;56411;52.964;10.540;2024-02-15T03:29:49;10.90;99.90
16102;DHT22;56411;52.964;10.540;2024-02-15T03:32:41;10.90;99.90
16102;DHT22;56411;52.964;10.540;2024-02-15T03:38:43;10.90;99.90
16102;DHT22;56411;52.964;10.540;2024-02-15T03:41:16;10.90;99.90
16102;DHT22;56411;52.964;10.540;2024-02-15T03:43:55;10.90;99.90
16102;DHT22;56411;52.964;10.540;2024-02-15T03:46:33;10.90;99.90
16102;DHT22;56411;52.964;10.540;2024-02-15T03:49:02;10.90;99.90
16102;DHT22;56411;52.964;10.540;2024-02-15T03:55:04;10.90;99.90
16102;DHT22;56411;52.964;10.540;2024-02-15T03:58:17;10.90;99.90
16102;DHT22;56411;52.964;10.540;2024-02-15T04:04:38;10.80;99.90
16102;DHT22;56411;52.964;10.540;2024-02-15T04:07:21;10.80;99.90
16102;DHT22;56411;52.964;10.540;2024-02-15T04:12:53;10.80;99.90
16102;DHT22;56411;52.964;10.540;2024-02-15T04:15:48;10.80;99.90
16102;DHT22;56411;52.964;10.540;2024-02-15T04:18:52;10.80;99.90
16102;DHT22;56411;52.964;10.540;2024-02-15T04:27:54;10.80;99.90
16102;DHT22;56411;52.964;10.540;2024-02-15T04:37:43;10.80;99.90
16102;DHT22;56411;52.964;10.540;2024-02-15T04:41:07;10.80;99.90
16102;DHT22;56411;52.964;10.540;2024-02-15T04:54:35;10.80;99.90
16102;DHT22;56411;52.964;10.540;2024-02-15T05:04:51;10.80;99.90
16102;DHT22;56411;52.964;10.540;2024-02-15T05:07:51;10.80;99.90
16102;DHT22;56411;52.964;10.540;2024-02-15T05:10:18;10.80;99.90
16102;DHT22;56411;52.964;10.540;2024-02-15T05:12:45;10.80;99.90
16102;DHT22;56411;52.964;10.540;2024-02-15T05:15:15;10.80;99.90
16102;DHT22;56411;52.964;10.540;2024-02-15T05:17:43;10.80;99.90
16102;DHT22;56411;52.964;10.540;2024-02-15T05:20:12;10.80;99.90
16102;DHT22;56411;52.964;10.540;2024-02-15T05:22:40;10.80;99.90
16102;DHT22;56411;52.964;10.540;2024-02-15T05:25:10;10.80;99.90
16102;DHT22;56411;52.964;10.540;2024-02-15T05:27:38;10.80;99.90
16102;DHT22;56411;52.964;10.540;2024-02-15T05:30:06;10.80;99.90
16102;DHT22;56411;52.964;10.540;2024-02-15T05:32:34;10.80;99.90
16102;DHT22;56411;52.964;10.540;2024-02-15T05:35:08;10.90;99.90
16102;DHT22;56411;52.964;10.540;2024-02-15T05:37:41;10.90;99.90
16102;DHT22;56411;52.964;10.540;2024-02-15T05:40:14;10.90;99.90
16102;DHT22;56411;52.964;10.540;2024-02-15T05:42:43;10.90;99.90
16102;DHT22;56411;52.964;10.540;2024-02-15T05:45:30;10.90;99.90
16102;DHT22;56411;52.964;10.540;2024-02-15T05:48:05;10.90;99.90
16102;DHT22;56411;52.964;10.540;2024-02-15T05:50:45;10.90;99.90
16102;DHT22;56411;52.964;10.540;2024-02-15T05:53:27;10.90;99.90
16102;DHT22;56411;52.964;10.540;2024-02-15T05:55:59;10.90;99.90
16102;DHT22;56411;52.964;10.540;2024-02-15T05:58:27;10.90;99.90
16102;DHT22;56411;52.964;10.540;2024-02-15T06:00:54;10.90;99.90
16102;DHT22;56411;52.964;10.540;2024-02-15T06:03:27;10.90;99.90
16102;DHT22;56411;52.964;10.540;2024-02-15T06:05:54;10.90;99.90
16102;DHT22;56411;52.964;10.540;2024-02-15T06:08:40;10.90;99.90
16102;DHT22;56411;52.964;10.540;2024-02-15T06:11:18;10.90;99.90
16102;DHT22;56411;52.964;10.540;2024-02-15T06:14:07;10.80;99.90
16102;DHT22;56411;52.964;10.540;2024-02-15T06:16:49;10.90;99.90
16102;DHT22;56411;52.964;10.540;2024-02-15T06:19:24;10.90;99.90
16102;DHT22;56411;52.964;10.540;2024-02-15T06:21:54;10.90;99.90
16102;DHT22;56411;52.964;10.540;2024-02-15T06:24:24;10.90;99.90
16102;DHT22;56411;52.964;10.540;2024-02-15T06:26:59;10.80;99.90
16102;DHT22;56411;52.964;10.540;2024-02-15T06:29:55;10.80;99.90
16102;DHT22;56411;52.964;10.540;2024-02-15T06:32:53;10.80;99.90
16102;DHT22;56411;52.964;10.540;2024-02-15T06:35:50;10.80;99.90
16102;DHT22;56411;52.964;10.540;2024-02-15T06:38:46;10.80;99.90
16102;DHT22;56411;52.964;10.540;2024-02-15T06:41:33;10.80;99.90
16102;DHT22;56411;52.964;10.540;2024-02-15T06:44:02;10.80;99.90
16102;DHT22;56411;52.964;10.540;2024-02-15T06:46:31;10.80;99.90
16102;DHT22;56411;52.964;10.540;2024-02-15T06:48:58;10.80;99.90
16102;DHT22;56411;52.964;10.540;2024-02-15T06:51:25;10.80;99.90
16102;DHT22;56411;52.964;10.540;2024-02-15T06:53:53;10.80;99.90
16102;DHT22;56411;52.964;10.540;2024-02-15T06:56:21;10.80;99.90
16102;DHT22;56411;52.964;10.540;2024-02-15T06:58:51;10.80;99.90
16102;DHT22;56411;52.964;10.540;2024-02-15T07:01:30;10.80;99.90
16102;DHT22;56411;52.964;10.540;2024-02-15T07:03:59;10.80;99.90
16102;DHT22;56411;52.964;10.540;2024-02-15T07:06:28;10.80;99.90
16102;DHT22;56411;52.964;10.540;2024-02-15T07:08:57;10.80;99.90
16102;DHT22;56411;52.964;10.540;2024-02-15T07:11:26;10.80;99.90
16102;DHT22;56411;52.964;10.540;2024-02-15T07:13:55;10.80;99.90
16102;DHT22;56411;52.964;10.540;2024-02-15T07:16:56;10.80;99.90
16102;DHT22;56411;52.964;10.540;2024-02-15T07:19:53;10.80;99.90
16102;DHT22;56411;52.964;10.540;2024-02-15T07:22:48;10.80;99.90
16102;DHT22;56411;52.964;10.540;2024-02-15T07:25:41;10.90;99.90
16102;DHT22;56411;52.964;10.540;2024-02-15T07:28:21;10.90;99.90
16102;DHT22;56411;52.964;10.540;2024-02-15T07:30:54;10.90;99.90
16102;DHT22;56411;52.964;10.540;2024-02-15T07:33:25;10.90;99.90
16102;DHT22;56411;52.964;10.540;2024-02-15T07:35:55;11.00;99.90
16102;DHT22;56411;52.964;10.540;2024-02-15T07:38:37;11.00;99.90
16102;DHT22;56411;52.964;10.540;2024-02-15T07:41:16;11.10;99.90
16102;DHT22;56411;52.964;10.540;2024-02-15T07:43:54;11.10;99.90
16102;DHT22;56411;52.964;10.540;2024-02-15T07:46:26;11.10;99.90
16102;DHT22;56411;52.964;10.540;2024-02-15T07:49:11;11.10;99.90
16102;DHT22;56411;52.964;10.540;2024-02-15T07:51:38;11.20;99.90
16102;DHT22;56411;52.964;10.540;2024-02-15T07:54:06;11.20;99.90
16102;DHT22;56411;52.964;10.540;2024-02-15T07:56:37;11.20;99.90
16102;DHT22;56411;52.964;10.540;2024-02-15T07:59:10;11.20;99.90
16102;DHT22;56411;52.964;10.540;2024-02-15T08:02:19;11.20;99.90
16102;DHT22;56411;52.964;10.540;2024-02-15T08:06:16;11.20;99.90
16102;DHT22;56411;52.964;10.540;2024-02-15T08:08:52;11.20;99.90
16102;DHT22;56411;52.964;10.540;2024-02-15T08:11:33;11.20;99.90
16102;DHT22;56411;52.964;10.540;2024-02-15T08:18:20;11.20;99.90
16102;DHT22;56411;52.964;10.540;2024-02-15T12:26:41;12.60;99.90
16102;DHT22;56411;52.964;10.540;2024-02-15T12:36:38;12.50;99.90
16102;DHT22;56411;52.964;10.540;2024-02-15T12:39:24;12.40;99.90
16102;DHT22;56411;52.964;10.540;2024-02-15T12:41:56;12.40;99.90
16102;DHT22;56411;52.964;10.540;2024-02-15T12:44:47;12.40;99.90
16102;DHT22;56411;52.964;10.540;2024-02-15T12:47:22;12.50;99.90
16102;DHT22;56411;52.964;10.540;2024-02-15T12:49:55;12.40;99.90
16102;DHT22;56411;52.964;10.540;2024-02-15T12:52:39;12.30;99.90
16102;DHT22;56411;52.964;10.540;2024-02-15T12:55:24;12.30;99.90
16102;DHT22;56411;52.964;10.540;2024-02-15T12:57:57;12.30;99.90
16102;DHT22;56411;52.964;10.540;2024-02-15T13:00:26;12.20;99.90
16102;DHT22;56411;52.964;10.540;2024-02-15T13:03:09;12.20;99.90
16102;DHT22;56411;52.964;10.540;2024-02-15T13:05:41;12.20;99.90
16102;DHT22;56411;52.964;10.540;2024-02-15T13:08:20;12.20;99.90
16102;DHT22;56411;52.964;10.540;2024-02-15T13:10:50;12.20;99.90
16102;DHT22;56411;52.964;10.540;2024-02-15T13:32:49;12.10;99.90
16102;DHT22;56411;52.964;10.540;2024-02-15T13:35:17;12.10;99.90
16102;DHT22;56411;52.964;10.540;2024-02-15T13:38:00;12.10;99.90
16102;DHT22;56411;52.964;10.540;2024-02-15T13:40:29;12.10;99.90
16102;DHT22;56411;52.964;10.540;2024-02-15T13:43:36;12.10;99.90
16102;DHT22;56411;52.964;10.540;2024-02-15T13:49:09;12.20;99.90
16102;DHT22;56411;52.964;10.540;2024-02-15T13:51:39;12.10;99.90
16102;DHT22;56411;52.964;10.540;2024-02-15T13:54:08;12.20;99.90
16102;DHT22;56411;52.964;10.540;2024-02-15T13:56:35;12.10;99.90
16102;DHT22;56411;52.964;10.540;2024-02-15T13:59:02;12.10;99.90
16102;DHT22;56411;52.964;10.540;2024-02-15T14:01:31;12.00;99.90
16102;DHT22;56411;52.964;10.540;2024-02-15T14:04:00;12.10;99.90
16102;DHT22;56411;52.964;10.540;2024-02-15T14:06:30;12.10;99.90
16102;DHT22;56411;52.964;10.540;2024-02-15T14:08:57;12.10;99.90
16102;DHT22;56411;52.964;10.540;2024-02-15T14:11:26;12.10;99.90
16102;DHT22;56411;52.964;10.540;2024-02-15T14:13:57;12.10;99.90
16102;DHT22;56411;52.964;10.540;2024-02-15T14:16:48;12.10;99.90
16102;DHT22;56411;52.964;10.540;2024-02-15T14:19:30;12.00;99.90
16102;DHT22;56411;52.964;10.540;2024-02-15T14:21:59;12.10;99.90
16102;DHT22;56411;52.964;10.540;2024-02-15T14:24:28;12.10;99.90
16102;DHT22;56411;52.964;10.540;2024-02-15T14:26:57;12.00;99.90
16102;DHT22;56411;52.964;10.540;2024-02-15T14:29:26;12.00;99.90
16102;DHT22;56411;52.964;10.540;2024-02-15T14:32:18;12.00;99.90
16102;DHT22;56411;52.964;10.540;2024-02-15T14:35:02;12.00;99.90
16102;DHT22;56411;52.964;10.540;2024-02-15T14:37:32;12.00;99.90
16102;DHT22;56411;52.964;10.540;2024-02-15T14:39:59;12.00;99.90
16102;DHT22;56411;52.964;10.540;2024-02-15T14:42:27;12.00;99.90
16102;DHT22;56411;52.964;10.540;2024-02-15T14:45:15;12.00;99.90
16102;DHT22;56411;52.964;10.540;2024-02-15T14:47:46;12.00;99.90
16102;DHT22;56411;52.964;10.540;2024-02-15T14:50:17;12.00;99.90
16102;DHT22;56411;52.964;10.540;2024-02-15T14:53:14;12.00;99.90
16102;DHT22;56411;52.964;10.540;2024-02-15T14:55:44;12.00;99.90
16102;DHT22;56411;52.964;10.540;2024-02-15T14:58:22;12.00;99.90
16102;DHT22;56411;52.964;10.540;2024-02-15T15:01:13;12.00;99.90
16102;DHT22;56411;52.964;10.540;2024-02-15T15:03:57;12.00;99.90
16102;DHT22;56411;52.964;10.540;2024-02-15T15:06:32;12.00;99.90
16102;DHT22;56411;52.964;10.540;2024-02-15T15:09:18;12.10;99.90
16102;DHT22;56411;52.964;10.540;2024-02-15T15:12:03;12.20;99.90
16102;DHT22;56411;52.964;10.540;2024-02-15T15:15:11;12.10;99.90
16102;DHT22;56411;52.964;10.540;2024-02-15T15:17:40;12.20;99.90
16102;DHT22;56411;52.964;10.540;2024-02-15T15:20:10;12.20;99.90
16102;DHT22;56411;52.964;10.540;2024-02-15T15:22:41;12.20;99.90
16102;DHT22;56411;52.964;10.540;2024-02-15T15:25:21;12.20;99.90
16102;DHT22;56411;52.964;10.540;2024-02-15T15:28:07;12.20;99.90
16102;DHT22;56411;52.964;10.540;2024-02-15T15:30:44;12.20;99.90
16102;DHT22;56411;52.964;10.540;2024-02-15T15:36:43;12.20;99.90
16102;DHT22;56411;52.964;10.540;2024-02-15T15:39:15;12.20;99.90
16102;DHT22;56411;52.964;10.540;2024-02-15T15:45:15;12.10;99.90
16102;DHT22;56411;52.964;10.540;2024-02-15T15:48:25;12.10;99.90
16102;DHT22;56411;52.964;10.540;2024-02-15T15:51:10;12.10;99.90
16102;DHT22;56411;52.964;10.540;2024-02-15T15:53:40;12.10;99.90
16102;DHT22;56411;52.964;10.540;2024-02-15T15:56:14;12.10;99.90
16102;DHT22;56411;52.964;10.540;2024-02-15T15:58:58;12.10;99.90
16102;DHT22;56411;52.964;10.540;2024-02-15T16:01:35;12.10;99.90
16102;DHT22;56411;52.964;10.540;2024-02-15T16:04:51;12.10;99.90
16102;DHT22;56411;52.964;10.540;2024-02-15T16:07:42;12.10;99.90
16102;DHT22;56411;52.964;10.540;2024-02-15T16:10:21;12.00;99.90
16102;DHT22;56411;52.964;10.540;2024-02-15T16:13:02;12.00;99.90
16102;DHT22;56411;52.964;10.540;2024-02-15T16:19:35;12.00;99.90
16102;DHT22;56411;52.964;10.540;2024-02-15T16:32:46;12.00;99.90
16102;DHT22;56411;52.964;10.540;2024-02-15T16:35:15;12.00;99.90
16102;DHT22;56411;52.964;10.540;2024-02-15T16:37:45;11.90;99.90
16102;DHT22;56411;52.964;10.540;2024-02-15T16:40:13;11.90;99.90
16102;DHT22;56411;52.964;10.540;2024-02-15T16:42:48;11.90;99.90
16102;DHT22;56411;52.964;10.540;2024-02-15T17:02:36;11.80;99.90
16102;DHT22;56411;52.964;10.540;2024-02-15T17:05:05;11.80;99.90
16102;DHT22;56411;52.964;10.540;2024-02-15T17:07:44;11.70;99.90
16102;DHT22;56411;52.964;10.540;2024-02-15T17:10:59;11.70;99.90
16102;DHT22;56411;52.964;10.540;2024-02-15T17:13:29;11.70;99.90
16102;DHT22;56411;52.964;10.540;2024-02-15T17:17:17;11.60;99.90
16102;DHT22;56411;52.964;10.540;2024-02-15T20:07:02;11.10;99.90
16102;DHT22;56411;52.964;10.540;2024-02-15T20:09:34;11.10;99.90
16102;DHT22;56411;52.964;10.540;2024-02-15T20:12:08;11.20;99.90
16102;DHT22;56411;52.964;10.540;2024-02-15T20:18:16;11.20;99.90
16102;DHT22;56411;52.964;10.540;2024-02-15T20:21:06;11.20;99.90
16102;DHT22;56411;52.964;10.540;2024-02-15T20:44:48;11.20;99.90
16102;DHT22;56411;52.964;10.540;2024-02-15T20:47:32;11.20;99.90
16102;DHT22;56411;52.964;10.540;2024-02-15T20:50:01;11.20;99.90
16102;DHT22;56411;52.964;10.540;2024-02-15T20:55:49;11.20;99.90
16102;DHT22;56411;52.964;10.540;2024-02-15T21:01:38;11.20;99.90
16102;DHT22;56411;52.964;10.540;2024-02-15T21:07:18;11.30;99.90
16102;DHT22;56411;52.964;10.540;2024-02-15T21:09:50;11.30;99.90
16102;DHT22;56411;52.964;10.540;2024-02-15T21:16:14;11.30;99.90
16102;DHT22;56411;52.964;10.540;2024-02-15T21:22:45;11.30;99.90
16102;DHT22;56411;52.964;10.540;2024-02-15T21:28:58;11.30;99.90
